La Habra Heights, California
Current Conditions -  °F | °C
As of 7:53 AM on Tuesday 21 Oct 2014 (Local Time) from KFUL Reporting Station
Haze Haze  
Wind Chill: 19°   Ceiling: 1100
Heat Index: 19°   Visibility: 5mi
Dew Point: 16°   Wind: 3mph
Humidity: 81%   Direction: NA
Pressure: 29.91"   Gusts: NA
Location:  33.9421°N, 117.951°W
Report Text: KFUL 211453Z VRB03KT 5SM HZ OVC011 19/16 A2991 RMK AO2 SLP126 T01890156 53006
Loading
Personal Weather Stations






























Interactive Weather Map
Tropical Storm Tracking
New forecast layout! Learn more

10-Day Weather Forecast

Advertisements
Track Severe Weather on mobile